Mantua, Ohio
Current Conditions -  °F | °C
As of 7:15 PM on Sunday 25 Jan 2015 (Local Time) from KPOV Reporting Station
Light Snow Light Snow  
Wind Chill: 12°   Ceiling: 2300
Heat Index: 22°   Visibility: 3mi
Dew Point: 18°   Wind: 9mph
Humidity: 84%   Direction: 50°NE
Pressure: 29.84"   Gusts: NA
Location:  41.28°N, 81.22°W
Report Text: KPOV 260015Z AUTO 05008KT 3SM -SN BKN023 BKN031 OVC037 M05/M08 A2984 RMK AO2 T10551078
Loading
Personal Weather Stations






























Interactive Weather Map New forecast layout! Learn more

10-Day Weather Forecast

Advertisements
Track Severe Weather on mobile